Time;durP1;ratioP1;P1;durP2;ratioP2;P2;SDS_P1;SDS_P2;PMS_P1;PMS_P2;Temp;Humidity;BMP_temperature;BMP_pressure;BME280_temperature;BME280_humidity;BME280_pressure;Samples;Min_cycle;Max_cycle;Signal;HPM_P1;HPM_P2
2022/04/01 00:02:38;;;;;;;28.70;15.50;;;;;;;6.30;72.24;97155.00;5098110;29;20066;-86
2022/04/01 00:05:28;;;;;;;30.10;16.05;;;;;;;6.74;71.81;97168.69;5098288;29;20067;-86
2022/04/01 00:08:18;;;;;;;32.15;17.00;;;;;;;6.74;72.17;97158.16;5092078;29;20431;-85
2022/04/01 00:11:09;;;;;;;29.25;15.40;;;;;;;7.00;70.90;97162.44;5091702;29;20163;-85
2022/04/01 00:14:00;;;;;;;30.98;16.23;;;;;;;6.70;70.72;97171.84;5104748;29;20059;-86
2022/04/01 00:16:51;;;;;;;27.60;15.30;;;;;;;6.23;70.10;97112.72;5091445;29;20130;-86
2022/04/01 00:19:42;;;;;;;29.58;15.73;;;;;;;6.76;70.88;97165.91;5105531;29;20055;-85
2022/04/01 00:22:32;;;;;;;35.15;16.67;;;;;;;6.51;71.39;97155.34;5124882;29;20525;-85
2022/04/01 00:25:23;;;;;;;30.90;17.05;;;;;;;6.88;70.95;97169.84;5111251;29;20654;-86
2022/04/01 00:28:13;;;;;;;35.63;17.65;;;;;;;7.16;69.29;97167.69;5111636;29;20513;-85
2022/04/01 00:31:03;;;;;;;30.42;17.58;;;;;;;6.99;71.03;97164.25;5097964;29;20051;-85
2022/04/01 00:34:15;;;;;;;32.95;17.77;;;;;;;6.82;71.23;97145.00;5112208;29;20130;-86
2022/04/01 00:37:04;;;;;;;31.77;17.42;;;;;;;6.71;72.14;97158.50;5134804;28;20047;-85
2022/04/01 00:39:54;;;;;;;34.03;18.15;;;;;;;7.10;71.66;97175.44;5113870;29;20047;-85
2022/04/01 00:42:45;;;;;;;30.83;16.95;;;;;;;7.07;70.85;97169.50;5098386;28;20056;-86
2022/04/01 00:45:35;;;;;;;28.08;15.70;;;;;;;6.42;71.56;97142.34;5113837;29;20106;-86
2022/04/01 00:48:26;;;;;;;30.77;17.27;;;;;;;6.70;70.77;97177.09;5116571;29;20054;-85
2022/04/01 00:51:19;;;;;;;32.53;17.80;;;;;;;6.68;72.61;97168.53;5112286;29;20114;-85
2022/04/01 00:54:10;;;;;;;31.95;16.65;;;;;;;6.46;71.50;97125.25;5112501;29;20057;-85
2022/04/01 00:57:10;;;;;;;32.03;17.20;;;;;;;7.04;70.74;97177.75;5110598;29;20071;-85
2022/04/01 01:00:00;;;;;;;26.00;14.95;;;;;;;6.92;69.75;97142.22;5110295;29;20166;-85
2022/04/01 01:02:54;;;;;;;26.17;15.07;;;;;;;6.77;69.72;97178.91;5125763;29;20098;-85
2022/04/01 01:05:44;;;;;;;25.13;15.25;;;;;;;6.47;71.50;97169.03;5109525;29;20458;-85
2022/04/01 01:08:35;;;;;;;24.45;14.48;;;;;;;6.20;71.25;97157.78;5097311;29;20047;-85
2022/04/01 01:11:26;;;;;;;27.20;15.52;;;;;;;6.71;70.75;97163.75;5110807;29;20051;-87
2022/04/01 01:14:24;;;;;;;28.45;15.55;;;;;;;6.73;69.84;97172.34;5110098;29;20051;-85
2022/04/01 01:17:14;;;;;;;31.25;16.27;;;;;;;6.66;70.82;97144.19;5084135;29;20154;-85
2022/04/01 01:20:12;;;;;;;28.63;15.95;;;;;;;6.23;71.47;97144.31;5110540;29;20086;-85
2022/04/01 01:23:03;;;;;;;27.70;16.00;;;;;;;5.81;72.47;97146.94;5098259;29;20073;-85
2022/04/01 01:25:54;;;;;;;31.38;17.35;;;;;;;6.17;73.12;97139.69;5123781;29;20099;-85
2022/04/01 01:28:45;;;;;;;29.50;17.63;;;;;;;6.24;71.20;97153.03;5110742;29;20055;-85
2022/04/01 01:31:56;;;;;;;27.90;16.40;;;;;;;5.87;72.17;97148.94;5125244;29;20062;-86
2022/04/01 01:34:46;;;;;;;32.53;17.83;;;;;;;6.16;71.94;97114.38;5110127;29;20106;-85
2022/04/01 01:37:38;;;;;;;30.77;17.25;;;;;;;6.64;70.71;97156.69;5110368;29;20067;-85
2022/04/01 01:40:28;;;;;;;29.02;16.38;;;;;;;6.02;71.89;97109.72;5110790;29;20062;-84
2022/04/01 01:43:19;;;;;;;29.88;17.05;;;;;;;6.41;70.80;97148.59;5124360;28;20113;-84
2022/04/01 01:46:09;;;;;;;30.92;17.60;;;;;;;6.66;71.40;97150.28;5111139;29;20055;-85
2022/04/01 01:49:01;;;;;;;28.05;16.02;;;;;;;6.76;70.18;97150.13;5113680;28;20059;-84
2022/04/01 01:54:43;;;;;;;28.90;16.35;;;;;;;6.69;69.82;97157.84;5130149;29;20078;-85
2022/04/01 01:55:23;;;;;;;27.52;16.70;;;;;;;6.20;71.40;97130.66;5115273;28;20158;-85
2022/04/01 01:58:13;;;;;;;26.80;15.93;;;;;;;6.21;71.34;97158.59;5114001;29;20083;-85
2022/04/01 02:01:04;;;;;;;29.60;16.15;;;;;;;5.75;72.11;97121.28;5101672;29;20063;-84
2022/04/01 02:03:56;;;;;;;22.75;14.20;;;;;;;5.50;72.17;97162.44;5113165;29;20049;-84
2022/04/01 02:06:46;;;;;;;26.20;15.15;;;;;;;6.01;70.69;97145.72;5128198;29;20054;-86
2022/04/01 02:09:40;;;;;;;22.50;13.60;;;;;;;6.27;71.13;97161.41;5114769;29;20117;-84
2022/04/01 02:12:30;;;;;;;22.40;14.40;;;;;;;5.71;71.59;97156.78;5114645;29;20058;-84
2022/04/01 02:15:20;;;;;;;25.33;13.93;;;;;;;6.24;70.87;97153.03;5102135;29;20058;-85
2022/04/01 02:18:11;;;;;;;22.70;13.93;;;;;;;6.18;70.63;97135.25;5127536;29;20155;-84
2022/04/01 02:21:07;;;;;;;22.80;14.10;;;;;;;5.48;72.81;97144.19;5112490;28;20043;-85
2022/04/01 02:23:57;;;;;;;24.38;14.82;;;;;;;5.88;72.22;97126.91;5098899;29;20054;-84
2022/04/01 02:26:48;;;;;;;27.48;15.30;;;;;;;6.08;71.56;97162.50;5111992;29;20055;-85
2022/04/01 02:29:39;;;;;;;25.33;15.15;;;;;;;6.39;70.71;97155.84;5125702;29;20062;-85
2022/04/01 02:32:55;;;;;;;26.17;14.73;;;;;;;6.11;70.65;97146.41;5130453;29;20055;-84
2022/04/01 02:35:50;;;;;;;26.05;15.25;;;;;;;5.83;70.69;97145.00;5098866;29;20058;-84
2022/04/01 02:38:41;;;;;;;26.10;15.68;;;;;;;6.17;72.24;97167.81;5113008;29;20074;-85
2022/04/01 02:41:33;;;;;;;25.42;15.20;;;;;;;5.92;69.71;97136.13;5111698;29;20062;-84
2022/04/01 02:44:23;;;;;;;22.08;13.68;;;;;;;5.53;70.77;97165.59;5110236;29;20055;-84
2022/04/01 02:47:21;;;;;;;21.88;13.52;;;;;;;5.50;72.26;97163.25;5110613;29;20051;-84
2022/04/01 02:50:13;;;;;;;23.42;13.90;;;;;;;5.68;70.31;97147.41;5109967;29;20059;-85
2022/04/01 02:53:03;;;;;;;21.25;12.70;;;;;;;6.01;70.16;97155.44;5110548;29;20149;-84
2022/04/01 02:55:54;;;;;;;21.48;12.45;;;;;;;5.97;69.89;97149.66;5110058;29;20062;-83
2022/04/01 02:58:45;;;;;;;19.63;12.45;;;;;;;5.83;70.29;97148.44;5109673;29;20522;-83
2022/04/01 03:01:40;;;;;;;21.60;12.80;;;;;;;6.11;68.87;97149.03;5108590;29;20066;-83
2022/04/01 03:04:30;;;;;;;18.42;12.80;;;;;;;5.94;71.32;97146.53;5109424;29;20439;-84
2022/04/01 03:07:22;;;;;;;21.17;12.60;;;;;;;6.29;68.91;97163.88;5108629;29;20070;-84
2022/04/01 03:10:13;;;;;;;19.33;11.95;;;;;;;6.18;69.75;97172.09;5108447;29;20082;-84
2022/04/01 03:13:07;;;;;;;19.52;12.98;;;;;;;6.43;68.24;97172.97;5123604;29;20441;-84
2022/04/01 03:16:26;;;;;;;20.90;12.95;;;;;;;5.81;71.48;97178.50;5084386;29;20043;-84
2022/04/01 03:19:19;;;;;;;19.40;12.68;;;;;;;5.52;71.86;97168.34;5109444;29;20517;-84
2022/04/01 03:22:10;;;;;;;21.52;13.43;;;;;;;6.00;70.23;97170.41;5108419;29;20063;-84
2022/04/01 03:25:01;;;;;;;22.38;13.07;;;;;;;6.27;69.55;97182.47;5096852;29;20103;-84
2022/04/01 03:28:00;;;;;;;20.05;13.10;;;;;;;6.13;71.29;97187.53;5111824;28;20063;-84
2022/04/01 03:30:51;;;;;;;23.08;14.18;;;;;;;6.25;70.95;97173.09;5115346;29;20058;-83
2022/04/01 03:33:46;;;;;;;21.38;13.73;;;;;;;6.31;69.55;97177.72;5115842;29;20050;-84
2022/04/01 03:36:36;;;;;;;22.35;13.25;;;;;;;6.29;70.39;97172.63;5116224;29;20054;-83
2022/04/01 03:39:27;;;;;;;22.38;13.68;;;;;;;6.25;70.53;97188.88;5104164;29;20063;-83
2022/04/01 03:42:20;;;;;;;21.60;14.27;;;;;;;6.32;69.76;97160.91;5110816;29;20094;-84
2022/04/01 03:45:13;;;;;;;20.92;13.45;;;;;;;6.43;69.08;97172.97;5113175;29;20105;-83
2022/04/01 03:48:38;;;;;;;20.52;13.00;;;;;;;6.37;68.44;97179.69;5113350;29;20138;-83
2022/04/01 03:51:33;;;;;;;21.33;12.73;;;;;;;6.51;70.22;97192.22;5112583;29;20106;-83
2022/04/01 03:54:25;;;;;;;19.80;12.68;;;;;;;6.46;68.72;97170.03;5113226;29;20227;-84
2022/04/01 03:57:34;;;;;;;20.42;11.77;;;;;;;6.43;68.67;97179.06;5128022;29;20051;-84
2022/04/01 04:00:43;;;;;;;20.13;12.25;;;;;;;5.71;70.72;97147.09;5114926;29;20100;-84
2022/04/01 04:03:34;;;;;;;19.90;12.10;;;;;;;6.47;68.89;97190.91;5113239;28;20083;-83
2022/04/01 04:06:25;;;;;;;17.40;11.52;;;;;;;6.09;69.78;97173.84;5113113;29;20055;-83
2022/04/01 04:09:17;;;;;;;16.92;10.70;;;;;;;5.49;70.64;97168.66;5128527;29;20059;-83
2022/04/01 04:12:13;;;;;;;15.90;10.50;;;;;;;5.61;71.55;97168.25;5113674;29;20417;-83
2022/04/01 04:15:07;;;;;;;16.40;10.68;;;;;;;5.69;70.36;97185.84;5114261;29;20069;-83
2022/04/01 04:17:59;;;;;;;17.50;11.15;;;;;;;5.23;71.93;97192.31;5100748;29;20122;-84
2022/04/01 04:21:15;;;;;;;16.25;10.05;;;;;;;4.77;74.16;97189.03;5100968;29;20077;-83
2022/04/01 04:24:08;;;;;;;17.00;10.05;;;;;;;5.69;69.94;97201.63;5127975;29;20654;-84
2022/04/01 04:27:11;;;;;;;17.10;10.20;;;;;;;5.31;71.24;97189.75;5095138;29;20108;-83
2022/04/01 04:30:07;;;;;;;17.48;9.23;;;;;;;5.42;71.21;97205.25;5101517;29;20135;-85
2022/04/01 04:33:11;;;;;;;19.50;11.13;;;;;;;5.31;71.87;97184.50;5116067;29;20549;-84
2022/04/01 04:36:04;;;;;;;15.18;9.85;;;;;;;4.71;72.18;97193.09;5115380;29;20062;-84
2022/04/01 04:39:14;;;;;;;16.42;10.35;;;;;;;5.05;72.23;97179.25;5114663;28;20070;-84
2022/04/01 04:42:05;;;;;;;16.60;10.55;;;;;;;5.48;71.29;97198.56;5112614;29;20051;-85
2022/04/01 04:44:56;;;;;;;17.25;10.70;;;;;;;5.14;72.20;97184.41;5112300;29;20062;-82
2022/04/01 04:47:48;;;;;;;16.60;10.23;;;;;;;5.67;71.05;97226.44;5080363;29;20106;-84
2022/04/01 04:50:38;;;;;;;17.75;11.15;;;;;;;5.64;71.12;97223.13;5111888;29;20058;-84
2022/04/01 04:53:34;;;;;;;16.63;10.52;;;;;;;5.24;71.96;97204.50;5111540;29;20057;-84
2022/04/01 04:56:25;;;;;;;14.95;9.95;;;;;;;4.82;72.62;97234.06;5111979;29;20055;-84
2022/04/01 04:59:20;;;;;;;17.13;10.63;;;;;;;5.00;73.66;97231.41;5112229;29;20062;-84
2022/04/01 05:02:16;;;;;;;17.50;9.82;;;;;;;4.79;72.38;97218.59;5111706;29;20186;-83
2022/04/01 05:05:09;;;;;;;16.38;9.02;;;;;;;5.23;72.08;97239.63;5109225;29;20066;-84
2022/04/01 05:08:54;;;;;;;16.00;10.02;;;;;;;4.87;72.95;97237.88;5112890;29;20062;-84
2022/04/01 05:12:14;;;;;;;15.20;9.75;;;;;;;4.90;74.06;97241.97;5113491;29;20102;-85
2022/04/01 05:15:28;;;;;;;17.60;10.60;;;;;;;5.04;72.21;97199.44;5101019;29;20129;-82
2022/04/01 05:18:25;;;;;;;15.73;9.65;;;;;;;5.02;72.45;97242.59;5112386;29;20051;-83
2022/04/01 05:21:22;;;;;;;16.65;10.85;;;;;;;4.70;73.11;97222.94;5126250;29;20052;-83
2022/04/01 05:24:21;;;;;;;17.85;10.93;;;;;;;4.69;71.68;97195.88;5111863;29;20086;-84
2022/04/01 05:27:24;;;;;;;23.10;10.48;;;;;;;5.67;70.60;97250.13;5111701;29;20066;-84
2022/04/01 05:30:38;;;;;;;19.08;10.60;;;;;;;5.64;69.53;97236.28;5115329;29;20433;-84
2022/04/01 05:33:58;;;;;;;16.92;10.98;;;;;;;5.61;69.40;97218.19;5114621;29;20059;-84
2022/04/01 05:36:53;;;;;;;14.55;9.82;;;;;;;5.10;70.65;97225.09;5112008;29;20054;-84
2022/04/01 05:39:47;;;;;;;17.40;11.18;;;;;;;5.48;71.45;97262.47;5112630;29;20061;-82
2022/04/01 05:42:41;;;;;;;15.30;9.80;;;;;;;4.79;71.74;97247.47;5112986;29;20110;-82
2022/04/01 05:46:09;;;;;;;16.45;10.57;;;;;;;5.18;71.56;97263.75;5126849;29;20234;-81
2022/04/01 05:49:00;;;;;;;17.17;10.63;;;;;;;4.97;72.97;97264.06;5111721;29;20103;-82
2022/04/01 05:51:53;;;;;;;18.25;10.40;;;;;;;5.72;69.55;97264.44;5113267;29;20055;-81
2022/04/01 05:54:43;;;;;;;18.90;11.13;;;;;;;5.27;70.17;97264.63;5113135;29;20122;-82
2022/04/01 05:57:35;;;;;;;18.95;11.20;;;;;;;4.16;73.77;97274.53;5112904;29;20055;-82
2022/04/01 06:00:28;;;;;;;19.15;12.30;;;;;;;4.82;72.48;97292.63;5113128;29;20414;-82
2022/04/01 06:03:30;;;;;;;20.27;12.48;;;;;;;4.12;73.15;97267.94;5113628;29;20066;-82
2022/04/01 06:06:31;;;;;;;19.20;11.90;;;;;;;4.68;73.92;97280.84;5126993;29;20062;-81
2022/04/01 06:09:34;;;;;;;20.70;13.35;;;;;;;4.27;74.09;97302.38;5112832;29;20048;-82
2022/04/01 06:13:04;;;;;;;21.33;12.88;;;;;;;4.82;72.24;97305.78;5110263;29;20539;-81
2022/04/01 06:16:31;;;;;;;23.17;13.07;;;;;;;4.44;73.19;97304.22;5127008;28;20074;-80
2022/04/01 06:19:44;;;;;;;21.33;13.88;;;;;;;4.68;72.55;97287.91;5112062;29;20090;-81
2022/04/01 06:22:41;;;;;;;;;;;;;;;5.06;72.11;97309.59;5112163;29;20051;-82
2022/04/01 06:25:38;;;;;;;20.70;12.93;;;;;;;4.02;75.81;97306.50;5107581;29;20374;-81
2022/04/01 06:28:30;;;;;;;22.75;13.30;;;;;;;3.66;76.11;97301.91;5110261;29;20422;-81
2022/04/01 06:31:22;;;;;;;17.77;10.95;;;;;;;4.55;74.21;97314.50;5112008;28;20059;-81
2022/04/01 06:34:22;;;;;;;23.50;13.88;;;;;;;4.24;73.82;97303.50;5113561;29;20079;-82
2022/04/01 06:37:53;;;;;;;22.38;14.15;;;;;;;4.26;73.81;97293.66;5103316;29;20426;-82
2022/04/01 06:40:58;;;;;;;23.30;14.45;;;;;;;5.25;70.61;97285.78;5097661;29;20099;-82
2022/04/01 06:43:58;;;;;;;;;;;;;;;4.62;72.00;97326.06;5094917;29;20142;-83
2022/04/01 06:47:08;;;;;;;24.30;14.32;;;;;;;5.31;70.74;97295.69;5115413;29;19938;-82
2022/04/01 06:49:59;;;;;;;23.48;14.35;;;;;;;5.03;71.06;97297.59;5112763;29;20179;-82
2022/04/01 06:53:09;;;;;;;22.48;13.60;;;;;;;4.45;72.97;97319.00;5128194;28;20055;-82
2022/04/01 06:56:34;;;;;;;21.95;13.25;;;;;;;3.99;75.05;97313.66;5131576;29;20137;-82
2022/04/01 06:59:24;;;;;;;24.90;14.20;;;;;;;4.52;72.88;97322.69;5128298;29;20047;-82
2022/04/01 07:02:15;;;;;;;19.08;13.07;;;;;;;5.05;72.42;97311.41;5099751;29;20142;-83
2022/04/01 07:05:05;;;;;;;22.77;13.27;;;;;;;4.93;72.43;97330.97;5117495;29;20059;-83
2022/04/01 07:07:57;;;;;;;20.10;11.60;;;;;;;4.96;71.82;97312.31;5107513;29;20422;-84
2022/04/01 07:10:48;;;;;;;19.48;10.65;;;;;;;5.08;71.46;97313.72;5114465;29;20110;-82
2022/04/01 07:13:39;;;;;;;17.83;11.45;;;;;;;5.45;70.31;97322.41;5131016;28;20525;-83
2022/04/01 07:16:29;;;;;;;18.55;10.95;;;;;;;5.47;71.10;97337.06;5131261;29;20490;-82
2022/04/01 07:19:20;;;;;;;16.38;10.35;;;;;;;5.36;70.41;97340.75;5134133;29;20098;-83
2022/04/01 07:22:10;;;;;;;13.00;8.73;;;;;;;4.28;73.78;97332.91;5108572;29;20529;-82
2022/04/01 07:25:00;;;;;;;15.73;8.85;;;;;;;4.18;73.41;97323.25;5127450;28;20074;-82
2022/04/01 07:27:55;;;;;;;15.15;9.63;;;;;;;5.00;72.42;97318.94;5111615;29;20091;-83
2022/04/01 07:30:45;;;;;;;13.95;9.10;;;;;;;5.65;70.52;97340.47;5114870;29;20077;-81
2022/04/01 07:33:36;;;;;;;15.63;9.43;;;;;;;4.76;72.71;97321.28;5111038;29;20103;-82
2022/04/01 07:36:26;;;;;;;14.45;9.10;;;;;;;4.43;73.46;97326.19;5126341;28;20163;-82
2022/04/01 07:39:16;;;;;;;13.18;9.15;;;;;;;4.54;72.04;97314.69;5126163;29;20055;-81
2022/04/01 07:42:07;;;;;;;13.30;8.65;;;;;;;4.42;73.46;97348.16;5126918;29;20061;-81
2022/04/01 07:44:57;;;;;;;11.95;7.63;;;;;;;4.18;74.49;97343.44;5111942;29;20087;-82
2022/04/01 07:47:49;;;;;;;14.40;8.70;;;;;;;4.67;73.96;97339.59;5090255;29;20050;-82
2022/04/01 07:50:40;;;;;;;14.27;8.00;;;;;;;4.37;74.23;97358.25;5120879;29;20051;-82
2022/04/01 07:53:30;;;;;;;12.20;7.47;;;;;;;4.12;74.71;97326.47;5111037;28;20054;-82
2022/04/01 07:56:21;;;;;;;14.02;9.63;;;;;;;3.50;74.41;97299.03;5109115;29;20425;-82
2022/04/01 07:59:14;;;;;;;17.02;10.50;;;;;;;3.99;74.92;97367.91;5097464;29;20490;-81
2022/04/01 08:02:04;;;;;;;18.60;11.57;;;;;;;4.17;74.84;97363.59;5124555;29;20126;-81
2022/04/01 08:04:55;;;;;;;19.02;12.10;;;;;;;4.30;74.05;97344.06;5110562;29;20086;-82
2022/04/01 08:07:47;;;;;;;19.38;12.40;;;;;;;4.41;73.75;97362.25;5125355;29;20130;-82
2022/04/01 08:10:37;;;;;;;23.90;14.25;;;;;;;4.50;72.92;97348.22;5110461;29;20577;-82
2022/04/01 08:13:27;;;;;;;21.20;13.20;;;;;;;4.19;74.16;97368.69;5096598;29;20062;-82
2022/04/01 08:16:18;;;;;;;21.23;12.40;;;;;;;4.24;73.32;97380.41;5114589;29;20181;-82
2022/04/01 08:19:09;;;;;;;18.00;11.50;;;;;;;3.66;74.06;97335.16;5112996;29;20054;-83
2022/04/01 08:21:59;;;;;;;21.83;13.35;;;;;;;4.34;74.63;97340.16;5114157;29;20055;-83
2022/04/01 08:24:50;;;;;;;20.23;12.27;;;;;;;4.71;72.31;97364.56;5127427;29;20047;-82
2022/04/01 08:27:39;;;;;;;19.17;12.20;;;;;;;5.17;72.71;97377.69;5111611;29;20055;-82
2022/04/01 08:30:29;;;;;;;21.08;12.32;;;;;;;4.76;72.69;97371.19;5112819;29;20125;-81
2022/04/01 08:33:20;;;;;;;16.58;10.73;;;;;;;4.90;73.66;97375.91;5113651;29;20134;-81
2022/04/01 08:36:10;;;;;;;16.60;10.48;;;;;;;5.19;70.90;97370.47;5113868;29;20048;-81
2022/04/01 08:39:01;;;;;;;19.17;10.35;;;;;;;5.21;70.93;97375.59;5111800;29;20209;-81
2022/04/01 08:41:51;;;;;;;16.25;10.48;;;;;;;4.84;73.38;97381.78;5114396;29;20520;-82
2022/04/01 08:44:45;;;;;;;16.17;9.82;;;;;;;5.36;70.63;97382.81;5114550;29;20516;-81
2022/04/01 08:47:38;;;;;;;15.77;9.98;;;;;;;4.81;72.10;97401.28;5113832;29;20063;-81
2022/04/01 08:50:28;;;;;;;15.02;9.80;;;;;;;5.18;71.99;97395.94;5115343;29;20071;-82
2022/04/01 08:53:20;;;;;;;14.02;9.23;;;;;;;4.50;73.15;97400.72;5101543;29;20066;-82
2022/04/01 08:56:11;;;;;;;15.07;9.10;;;;;;;4.54;72.18;97402.13;5131405;29;20416;-81
2022/04/01 08:59:01;;;;;;;13.55;8.55;;;;;;;4.06;73.32;97413.59;5118284;29;20069;-81
2022/04/01 09:01:52;;;;;;;12.48;8.70;;;;;;;3.95;74.09;97400.66;5118787;29;20142;-81
2022/04/01 09:04:42;;;;;;;11.63;7.85;;;;;;;4.16;73.31;97403.88;5123492;29;20082;-82
2022/04/01 09:07:33;;;;;;;14.32;7.95;;;;;;;4.29;74.90;97427.19;5115889;29;20143;-82
2022/04/01 09:10:23;;;;;;;12.85;8.30;;;;;;;4.85;72.88;97414.94;5128640;28;20058;-84
2022/04/01 09:13:14;;;;;;;10.98;7.70;;;;;;;4.25;73.03;97417.97;5129104;29;20114;-82
2022/04/01 09:16:05;;;;;;;12.55;7.95;;;;;;;4.15;73.54;97419.78;5129594;29;20070;-81
2022/04/01 09:18:57;;;;;;;11.98;7.95;;;;;;;4.59;71.93;97436.63;5117500;28;20049;-81
2022/04/01 09:21:49;;;;;;;12.77;7.32;;;;;;;5.29;71.73;97433.47;5117600;29;20047;-82
2022/04/01 09:25:00;;;;;;;12.40;7.80;;;;;;;5.11;70.93;97439.53;5114816;29;20061;-82
2022/04/01 09:27:52;;;;;;;10.52;7.47;;;;;;;5.49;69.81;97455.19;5117189;29;20046;-82
2022/04/01 09:30:56;;;;;;;12.07;6.93;;;;;;;4.95;72.44;97452.50;5119011;29;20145;-82
2022/04/01 09:33:49;;;;;;;9.85;6.80;;;;;;;5.08;69.15;97437.22;5119915;29;20057;-82
2022/04/01 09:36:41;;;;;;;10.73;6.97;;;;;;;4.91;72.18;97451.13;5118067;29;20114;-82
2022/04/01 09:39:32;;;;;;;10.70;7.03;;;;;;;4.37;73.06;97452.72;5120245;28;20055;-82
2022/04/01 09:42:23;;;;;;;11.32;7.68;;;;;;;4.97;72.76;97450.56;5118228;29;20449;-81
2022/04/01 09:45:20;;;;;;;11.98;7.55;;;;;;;4.81;72.78;97445.09;5115709;29;20632;-81
2022/04/01 09:48:16;;;;;;;11.85;8.10;;;;;;;5.05;72.82;97461.13;5132443;28;20070;-81
2022/04/01 09:51:10;;;;;;;12.85;7.97;;;;;;;5.43;70.92;97440.88;5116288;28;20138;-81
2022/04/01 09:54:04;;;;;;;10.07;7.07;;;;;;;5.70;70.52;97445.22;5116683;29;20061;-82
2022/04/01 09:57:16;;;;;;;;;;;;;;;4.75;72.72;97461.44;5131049;28;20062;-81
2022/04/01 10:00:09;;;;;;;9.30;6.88;;;;;;;5.58;71.90;97454.31;5132940;29;19923;-81
2022/04/01 10:03:05;;;;;;;10.30;6.25;;;;;;;4.60;72.16;97440.06;5121800;28;20417;-81
2022/04/01 10:05:56;;;;;;;9.40;6.32;;;;;;;4.94;72.78;97461.34;5111042;29;20435;-82
2022/04/01 10:08:47;;;;;;;8.98;6.40;;;;;;;4.70;73.61;97439.06;5111348;29;20050;-82
2022/04/01 10:11:43;;;;;;;9.48;6.90;;;;;;;5.00;71.49;97459.91;5100066;29;20082;-81
2022/04/01 10:14:39;;;;;;;11.15;7.40;;;;;;;4.22;75.30;97458.41;5096609;29;20062;-82
2022/04/01 10:17:46;;;;;;;12.15;7.75;;;;;;;4.89;72.35;97484.59;5096210;29;20055;-82
2022/04/01 10:20:38;;;;;;;12.43;8.15;;;;;;;4.66;74.07;97479.69;5110891;29;20051;-82
2022/04/01 10:23:29;;;;;;;9.43;7.10;;;;;;;3.94;73.97;97469.78;5114125;29;20060;-81
2022/04/01 10:26:21;;;;;;;11.55;7.10;;;;;;;4.82;72.14;97475.63;5112884;29;20103;-82
2022/04/01 10:29:11;;;;;;;14.07;6.90;;;;;;;3.89;73.78;97464.13;5114857;28;20055;-81
2022/04/01 10:32:24;;;;;;;10.52;6.90;;;;;;;4.79;72.64;97479.38;5113301;29;20063;-82
2022/04/01 10:35:26;;;;;;;9.77;7.10;;;;;;;3.75;75.35;97483.75;5110421;29;20662;-82
2022/04/01 10:38:19;;;;;;;9.70;6.63;;;;;;;4.10;74.14;97482.31;5097881;29;20055;-82
2022/04/01 10:41:12;;;;;;;7.32;5.90;;;;;;;4.09;73.14;97471.00;5109353;28;20055;-81
2022/04/01 10:44:03;;;;;;;8.80;6.35;;;;;;;3.28;75.04;97460.81;5105723;29;20055;-81
2022/04/01 10:46:58;;;;;;;9.00;6.25;;;;;;;3.88;76.00;97486.91;5109119;29;20054;-81
2022/04/01 10:53:37;;;;;;;8.13;6.00;;;;;;;4.56;72.26;97497.28;5107098;29;20047;-82
2022/04/01 10:56:29;;;;;;;8.20;5.90;;;;;;;3.85;73.57;97486.38;5122602;29;20544;-81
2022/04/01 10:59:23;;;;;;;8.98;6.40;;;;;;;4.13;72.99;97493.34;5107606;29;20097;-81
2022/04/01 11:02:18;;;;;;;11.85;7.68;;;;;;;5.27;71.87;97480.13;5102068;29;20090;-82
2022/04/01 11:05:30;;;;;;;8.65;6.65;;;;;;;4.43;72.59;97478.38;5108598;28;20086;-81
2022/04/01 11:08:21;;;;;;;12.18;7.43;;;;;;;4.69;73.25;97482.03;5140391;28;20051;-82
2022/04/01 11:11:12;;;;;;;9.93;7.35;;;;;;;4.37;75.11;97507.81;5107111;29;20061;-81
2022/04/01 11:14:05;;;;;;;8.85;6.40;;;;;;;4.82;70.94;97496.63;5122034;28;20055;-82
2022/04/01 11:17:05;;;;;;;9.52;7.03;;;;;;;4.26;72.46;97485.19;5107122;29;20651;-82
2022/04/01 11:20:10;;;;;;;8.88;6.78;;;;;;;4.91;71.87;97516.78;5107467;29;20137;-82
2022/04/01 11:23:04;;;;;;;10.70;6.85;;;;;;;3.75;74.62;97521.25;5122112;29;20597;-81
2022/04/01 11:25:57;;;;;;;9.82;6.88;;;;;;;3.48;74.94;97505.38;5109846;29;20110;-82
2022/04/01 11:28:47;;;;;;;13.73;7.93;;;;;;;3.79;76.50;97500.00;5123312;29;20095;-82
2022/04/01 11:31:39;;;;;;;9.63;7.25;;;;;;;3.71;74.23;97501.53;5124102;29;20053;-82
2022/04/01 11:34:30;;;;;;;12.88;9.10;;;;;;;4.67;72.34;97519.94;5109003;29;20513;-82
2022/04/01 11:37:20;;;;;;;13.57;8.68;;;;;;;4.36;72.93;97511.41;5125132;29;20170;-82
2022/04/01 11:40:21;;;;;;;12.63;8.65;;;;;;;5.29;70.06;97522.81;5122568;28;20071;-82
2022/04/01 11:43:17;;;;;;;12.32;8.70;;;;;;;5.07;69.04;97514.38;5105903;29;20063;-82
2022/04/01 11:46:09;;;;;;;15.25;8.85;;;;;;;4.92;71.25;97532.41;5109702;29;20061;-81
2022/04/01 11:49:00;;;;;;;11.55;8.23;;;;;;;4.68;71.67;97521.56;5123836;28;20062;-82
2022/04/01 11:51:50;;;;;;;14.13;9.35;;;;;;;5.09;68.59;97499.28;5127611;29;20058;-82
2022/04/01 11:54:40;;;;;;;12.55;9.00;;;;;;;4.92;69.64;97507.94;5112952;29;20521;-82
2022/04/01 11:57:31;;;;;;;11.00;8.30;;;;;;;3.63;72.59;97508.41;5113459;29;20525;-81
2022/04/01 12:00:24;;;;;;;13.10;9.15;;;;;;;3.51;75.44;97534.75;5128464;29;20062;-82
2022/04/01 12:03:18;;;;;;;13.85;9.18;;;;;;;3.86;73.44;97528.16;5103074;29;20051;-82
2022/04/01 12:09:31;;;;;;;12.20;8.88;;;;;;;4.21;74.27;97521.53;5095915;29;20062;-84
2022/04/01 12:12:23;;;;;;;17.13;11.07;;;;;;;4.39;72.83;97550.50;5126345;29;20051;-83
2022/04/01 12:15:13;;;;;;;14.60;9.80;;;;;;;3.90;73.42;97512.97;5114768;29;20061;-83
2022/04/01 12:18:16;;;;;;;17.08;10.93;;;;;;;4.11;72.66;97526.78;5128504;28;20094;-83
2022/04/01 12:21:07;;;;;;;17.20;11.15;;;;;;;3.67;75.14;97549.94;5116395;29;20504;-83
2022/04/01 12:23:59;;;;;;;14.98;10.45;;;;;;;2.86;75.56;97512.50;5116000;29;20074;-83
2022/04/01 12:26:49;;;;;;;18.80;11.63;;;;;;;3.57;76.13;97545.66;5115347;29;20548;-83
2022/04/01 12:29:43;;;;;;;17.92;12.02;;;;;;;4.43;72.23;97546.63;5109742;29;20224;-83
2022/04/01 12:32:34;;;;;;;18.42;11.68;;;;;;;3.72;74.31;97537.25;5103545;29;20074;-80
2022/04/01 12:35:24;;;;;;;21.25;14.18;;;;;;;4.13;74.26;97543.19;5122695;29;20106;-80
2022/04/01 12:38:15;;;;;;;18.23;12.10;;;;;;;4.39;71.76;97540.00;5111494;29;20110;-81
2022/04/01 12:41:12;;;;;;;16.08;10.90;;;;;;;3.45;73.44;97534.47;5075480;29;20065;-82
2022/04/01 12:44:12;;;;;;;18.23;12.50;;;;;;;3.88;72.21;97556.88;5099334;29;20058;-82
2022/04/01 12:47:03;;;;;;;20.80;13.70;;;;;;;4.63;69.76;97531.66;5113118;29;20095;-83
2022/04/01 12:49:54;;;;;;;22.08;14.05;;;;;;;4.18;69.66;97513.94;5114029;29;20655;-83
2022/04/01 12:52:48;;;;;;;19.40;13.70;;;;;;;3.62;73.04;97546.91;5114479;29;20139;-83
2022/04/01 12:55:38;;;;;;;22.30;13.35;;;;;;;3.79;74.02;97560.31;5115154;29;20137;-82
2022/04/01 12:58:28;;;;;;;21.60;13.23;;;;;;;3.82;72.42;97552.19;5134455;28;20090;-83
2022/04/01 13:01:26;;;;;;;23.27;14.60;;;;;;;4.24;71.21;97543.06;5105804;29;20043;-82
2022/04/01 13:04:21;;;;;;;23.05;14.10;;;;;;;4.67;70.06;97575.06;5135522;29;20077;-81
2022/04/01 13:07:15;;;;;;;25.85;16.05;;;;;;;4.88;69.13;97575.69;5128040;29;20063;-82
2022/04/01 13:10:12;;;;;;;26.45;15.20;;;;;;;5.04;68.82;97571.63;5108942;29;20059;-80
2022/04/01 13:13:15;;;;;;;19.95;13.48;;;;;;;4.62;69.11;97557.09;5110423;29;20102;-80
2022/04/01 13:16:08;;;;;;;19.95;11.98;;;;;;;3.54;71.60;97572.94;5106885;29;20063;-80
2022/04/01 13:19:26;;;;;;;22.08;14.52;;;;;;;3.94;73.42;97577.28;5109858;29;20051;-81
2022/04/01 13:22:16;;;;;;;24.42;15.93;;;;;;;4.54;70.23;97575.34;5124135;28;20685;-83
2022/04/01 13:25:08;;;;;;;20.98;15.32;;;;;;;4.40;69.84;97583.63;5120446;28;20058;-81
2022/04/01 13:27:58;;;;;;;22.17;15.27;;;;;;;4.43;69.01;97544.81;5123500;29;20062;-81
2022/04/01 13:30:49;;;;;;;23.75;14.98;;;;;;;4.30;70.92;97567.91;5125613;28;20642;-83
2022/04/01 13:33:39;;;;;;;23.45;15.60;;;;;;;4.49;69.55;97553.94;5116654;29;20193;-82
2022/04/01 13:36:29;;;;;;;24.17;15.80;;;;;;;4.56;69.12;97583.91;5129181;29;20078;-82
2022/04/01 13:39:19;;;;;;;25.00;15.55;;;;;;;4.59;69.45;97561.78;5115518;28;20725;-82
2022/04/01 13:42:10;;;;;;;23.83;15.55;;;;;;;4.38;67.97;97561.97;5114388;29;20059;-82
2022/04/01 13:45:01;;;;;;;27.23;16.00;;;;;;;4.60;69.90;97590.53;5098943;29;20047;-82
2022/04/01 13:47:51;;;;;;;65.65;27.75;;;;;;;4.89;67.50;97568.63;5125896;29;20062;-82